Time;durP1;ratioP1;P1;durP2;ratioP2;P2;SDS_P1;SDS_P2;PMS_P1;PMS_P2;Temp;Humidity;BMP_temperature;BMP_pressure;BME280_temperature;BME280_humidity;BME280_pressure;Samples;Min_cycle;Max_cycle;Signal;HPM_P1;HPM_P2
2023/07/15 00:00:39;;;;;;;7.43;2.45;;;;;;;;;;4996262;28;96667;-76
2023/07/15 00:03:08;;;;;;;9.63;2.65;;;;;;;;;;4996435;28;93291;-85
2023/07/15 00:05:37;;;;;;;8.38;2.70;;;;;;;;;;4995193;28;92443;-81
2023/07/15 00:08:04;;;;;;;9.07;3.00;;;;;;;;;;4996608;28;94368;-78
2023/07/15 00:10:31;;;;;;;15.60;3.13;;;;;;;;;;4996092;28;94017;-79
2023/07/15 00:12:58;;;;;;;10.88;2.72;;;;;;;;;;4995838;28;92631;-77
2023/07/15 00:15:25;;;;;;;9.95;2.63;;;;;;;;;;4997337;28;92991;-77
2023/07/15 00:17:52;;;;;;;6.38;2.70;;;;;;;;;;4997538;28;93798;-78
2023/07/15 00:20:19;;;;;;;8.18;2.90;;;;;;;;;;5013226;28;93433;-78
2023/07/15 00:22:46;;;;;;;6.32;3.03;;;;;;;;;;5014176;28;96913;-78
2023/07/15 00:25:15;;;;;;;3.92;2.50;;;;;;;;;;5016314;28;92471;-77
2023/07/15 00:27:42;;;;;;;7.68;2.33;;;;;;;;;;5015661;28;92922;-77
2023/07/15 00:30:09;;;;;;;6.78;2.55;;;;;;;;;;5010184;28;93768;-79
2023/07/15 00:32:36;;;;;;;9.90;2.55;;;;;;;;;;4996116;28;92546;-79
2023/07/15 00:35:03;;;;;;;2.53;2.28;;;;;;;;;;4996129;28;94320;-78
2023/07/15 00:37:29;;;;;;;7.25;2.42;;;;;;;;;;5013940;28;95061;-78
2023/07/15 00:39:56;;;;;;;6.63;2.50;;;;;;;;;;5019653;28;91995;-81
2023/07/15 00:42:39;;;;;;;6.40;2.25;;;;;;;;;;5014642;28;94825;-81
2023/07/15 00:45:08;;;;;;;11.27;2.33;;;;;;;;;;4998236;28;92478;-81
2023/07/15 00:47:45;;;;;;;4.70;2.67;;;;;;;;;;5013146;28;94800;-82
2023/07/15 00:50:12;;;;;;;7.72;2.40;;;;;;;;;;5015558;28;94857;-81
2023/07/15 00:52:39;;;;;;;4.63;2.30;;;;;;;;;;5013353;28;92520;-82
2023/07/15 00:55:05;;;;;;;5.63;2.00;;;;;;;;;;5014637;28;93954;-80
2023/07/15 00:57:32;;;;;;;10.38;2.55;;;;;;;;;;5015282;28;94536;-79
2023/07/15 00:59:59;;;;;;;13.57;2.83;;;;;;;;;;5015453;28;92404;-80
2023/07/15 01:02:26;;;;;;;8.82;2.17;;;;;;;;;;5018420;28;94540;-81
2023/07/15 01:04:53;;;;;;;10.23;2.35;;;;;;;;;;5015599;28;91704;-81
2023/07/15 01:07:19;;;;;;;7.53;2.28;;;;;;;;;;5015495;28;93819;-81
2023/07/15 01:09:47;;;;;;;2.75;2.20;;;;;;;;;;5013140;28;94811;-82
2023/07/15 01:12:13;;;;;;;9.27;2.35;;;;;;;;;;5012821;28;94833;-81
2023/07/15 01:14:41;;;;;;;10.20;2.30;;;;;;;;;;5013824;28;99225;-83
2023/07/15 01:17:07;;;;;;;8.00;2.47;;;;;;;;;;5014749;28;94521;-82
2023/07/15 01:19:34;;;;;;;9.02;2.40;;;;;;;;;;5015726;28;92454;-80
2023/07/15 01:22:01;;;;;;;6.22;2.40;;;;;;;;;;5018149;28;94444;-81
2023/07/15 01:24:28;;;;;;;9.82;2.08;;;;;;;;;;5015081;28;92512;-81
2023/07/15 01:26:56;;;;;;;4.22;2.17;;;;;;;;;;5014203;28;94181;-81
2023/07/15 01:29:22;;;;;;;6.47;1.80;;;;;;;;;;5014795;28;93719;-83
2023/07/15 01:31:49;;;;;;;7.65;2.22;;;;;;;;;;4995625;28;92877;-81
2023/07/15 01:34:15;;;;;;;8.73;2.00;;;;;;;;;;4977405;28;92610;-77
2023/07/15 01:36:41;;;;;;;5.32;2.08;;;;;;;;;;4992053;28;97006;-79
2023/07/15 01:39:09;;;;;;;14.00;2.75;;;;;;;;;;4994707;28;92409;-78
2023/07/15 01:41:36;;;;;;;6.93;2.08;;;;;;;;;;4995005;28;94442;-80
2023/07/15 01:44:05;;;;;;;6.20;2.50;;;;;;;;;;5008739;28;94403;-78
2023/07/15 01:46:34;;;;;;;7.43;2.22;;;;;;;;;;4999666;28;93309;-79
2023/07/15 01:49:02;;;;;;;5.55;2.50;;;;;;;;;;5014547;28;94787;-78
2023/07/15 01:51:29;;;;;;;6.13;1.90;;;;;;;;;;5014758;28;92624;-78
2023/07/15 01:53:56;;;;;;;8.05;2.25;;;;;;;;;;5015651;28;97661;-78
2023/07/15 01:56:22;;;;;;;6.60;1.92;;;;;;;;;;5014366;28;93613;-78
2023/07/15 01:58:48;;;;;;;4.32;1.83;;;;;;;;;;5014191;28;92404;-78
2023/07/15 02:01:15;;;;;;;5.57;2.20;;;;;;;;;;5011091;28;95263;-81
2023/07/15 02:03:41;;;;;;;14.40;2.30;;;;;;;;;;5014351;28;94936;-81
2023/07/15 02:06:08;;;;;;;4.53;1.90;;;;;;;;;;5016771;28;92615;-79
2023/07/15 02:08:34;;;;;;;4.10;1.83;;;;;;;;;;5014763;28;94747;-79
2023/07/15 02:11:01;;;;;;;4.40;1.92;;;;;;;;;;5014526;28;92447;-79
2023/07/15 02:13:28;;;;;;;9.73;2.35;;;;;;;;;;5014476;28;94267;-80
2023/07/15 02:15:54;;;;;;;4.53;1.80;;;;;;;;;;5014508;28;95796;-79
2023/07/15 02:18:22;;;;;;;4.03;1.90;;;;;;;;;;5014703;27;92020;-79
2023/07/15 02:20:49;;;;;;;6.90;1.95;;;;;;;;;;5014613;28;93023;-79
2023/07/15 02:23:19;;;;;;;11.25;2.40;;;;;;;;;;5013983;28;93450;-76
2023/07/15 02:25:45;;;;;;;3.73;2.07;;;;;;;;;;5012650;28;94835;-81
2023/07/15 02:28:12;;;;;;;4.65;2.28;;;;;;;;;;5017042;28;95889;-80
2023/07/15 02:30:38;;;;;;;6.70;1.95;;;;;;;;;;5017871;28;92558;-82
2023/07/15 02:33:06;;;;;;;13.68;2.00;;;;;;;;;;5017802;28;94125;-81
2023/07/15 02:35:33;;;;;;;6.32;2.13;;;;;;;;;;5017317;28;93958;-81
2023/07/15 02:38:00;;;;;;;5.40;2.35;;;;;;;;;;5018018;28;92423;-83
2023/07/15 02:40:26;;;;;;;8.68;2.28;;;;;;;;;;5017776;28;94618;-80
2023/07/15 02:42:53;;;;;;;6.65;2.53;;;;;;;;;;5017002;28;93810;-81
2023/07/15 02:45:19;;;;;;;9.85;2.58;;;;;;;;;;5017373;28;92482;-80
2023/07/15 02:47:45;;;;;;;9.63;2.40;;;;;;;;;;5018070;28;93172;-82
2023/07/15 02:50:12;;;;;;;5.15;2.08;;;;;;;;;;5018868;28;96625;-82
2023/07/15 02:52:38;;;;;;;8.80;2.28;;;;;;;;;;5018243;28;94248;-81
2023/07/15 02:55:06;;;;;;;6.80;2.33;;;;;;;;;;5017061;28;93922;-80
2023/07/15 02:57:33;;;;;;;12.88;2.53;;;;;;;;;;5017311;28;92470;-82
2023/07/15 03:00:00;;;;;;;9.80;2.08;;;;;;;;;;5017860;28;93241;-82
2023/07/15 03:02:29;;;;;;;9.52;2.33;;;;;;;;;;5016993;28;93400;-77
2023/07/15 03:05:00;;;;;;;7.38;1.90;;;;;;;;;;5016496;28;92741;-81
2023/07/15 03:07:26;;;;;;;;;;;;;;;;;;5018830;28;94250;-77
2023/07/15 03:09:52;;;;;;;6.25;2.53;;;;;;;;;;5016915;28;122960;-81
2023/07/15 03:12:19;;;;;;;9.98;2.47;;;;;;;;;;5019713;28;92668;-80
2023/07/15 03:14:46;;;;;;;5.85;2.78;;;;;;;;;;5013996;28;96008;-80
2023/07/15 03:17:14;;;;;;;8.90;2.92;;;;;;;;;;5017664;28;92509;-80
2023/07/15 03:19:41;;;;;;;6.80;2.50;;;;;;;;;;5017021;28;93197;-80
2023/07/15 03:22:07;;;;;;;4.95;2.20;;;;;;;;;;5017152;28;94394;-80
2023/07/15 03:24:34;;;;;;;5.15;2.53;;;;;;;;;;5016426;28;92608;-80
2023/07/15 03:27:01;;;;;;;10.27;2.60;;;;;;;;;;5016564;28;94298;-80
2023/07/15 03:29:28;;;;;;;15.02;2.80;;;;;;;;;;5016000;28;93821;-80
2023/07/15 03:31:54;;;;;;;4.28;2.33;;;;;;;;;;5000483;28;92063;-78
2023/07/15 03:34:21;;;;;;;3.30;2.08;;;;;;;;;;4995399;28;94478;-80
2023/07/15 03:36:51;;;;;;;3.95;2.63;;;;;;;;;;4996003;28;92402;-81
2023/07/15 03:39:19;;;;;;;8.90;2.55;;;;;;;;;;4995015;28;94883;-80
2023/07/15 03:41:46;;;;;;;4.10;2.20;;;;;;;;;;4996677;28;93546;-79
2023/07/15 03:44:12;;;;;;;7.40;2.05;;;;;;;;;;4998936;28;92506;-75
2023/07/15 03:46:40;;;;;;;7.85;2.80;;;;;;;;;;4996394;28;93182;-82
2023/07/15 03:49:07;;;;;;;5.85;2.45;;;;;;;;;;4996869;28;95105;-81
2023/07/15 03:51:34;;;;;;;7.93;2.40;;;;;;;;;;4996417;28;92426;-81
2023/07/15 03:54:00;;;;;;;10.02;2.35;;;;;;;;;;4999667;28;97145;-71
2023/07/15 03:56:27;;;;;;;3.38;2.42;;;;;;;;;;4996778;28;91761;-82
2023/07/15 03:58:54;;;;;;;5.28;2.28;;;;;;;;;;4995490;28;94483;-81
2023/07/15 04:01:20;;;;;;;7.95;2.50;;;;;;;;;;5012710;28;93749;-76
2023/07/15 04:03:47;;;;;;;4.00;2.42;;;;;;;;;;5013533;28;94799;-73
2023/07/15 04:06:13;;;;;;;3.88;2.55;;;;;;;;;;5015910;28;95748;-77
2023/07/15 04:08:40;;;;;;;7.00;2.55;;;;;;;;;;5015986;28;94727;-77
2023/07/15 04:11:06;;;;;;;4.55;2.72;;;;;;;;;;5016234;28;92439;-80
2023/07/15 04:13:33;;;;;;;6.15;2.92;;;;;;;;;;5016236;28;94740;-83
2023/07/15 04:15:59;;;;;;;7.03;2.40;;;;;;;;;;5019443;28;93746;-82
2023/07/15 04:18:26;;;;;;;10.00;2.80;;;;;;;;;;5014868;28;93730;-80
2023/07/15 04:20:53;;;;;;;5.07;2.55;;;;;;;;;;5016080;28;93949;-80
2023/07/15 04:23:20;;;;;;;8.18;2.60;;;;;;;;;;5015921;28;92488;-81
2023/07/15 04:25:48;;;;;;;3.70;2.22;;;;;;;;;;5015759;28;94399;-80
2023/07/15 04:28:14;;;;;;;6.45;2.50;;;;;;;;;;5013654;28;100443;-80
2023/07/15 04:30:40;;;;;;;5.25;2.70;;;;;;;;;;5005829;28;92491;-80
2023/07/15 04:33:07;;;;;;;4.70;2.58;;;;;;;;;;4995854;28;96581;-80
2023/07/15 04:35:34;;;;;;;9.10;2.60;;;;;;;;;;4995512;28;94487;-80
2023/07/15 04:38:00;;;;;;;6.63;2.53;;;;;;;;;;4998526;28;92491;-81
2023/07/15 04:40:26;;;;;;;6.65;2.78;;;;;;;;;;4994501;28;94637;-81
2023/07/15 04:42:53;;;;;;;3.47;2.25;;;;;;;;;;4995788;28;92507;-81
2023/07/15 04:45:19;;;;;;;4.60;2.45;;;;;;;;;;4994601;28;94335;-81
2023/07/15 04:47:46;;;;;;;12.30;2.60;;;;;;;;;;5024482;28;94860;-82
2023/07/15 04:50:12;;;;;;;7.05;2.60;;;;;;;;;;5035664;27;92505;-81
2023/07/15 04:52:38;;;;;;;8.43;2.70;;;;;;;;;;5013489;28;94741;-82
2023/07/15 04:55:05;;;;;;;6.38;2.55;;;;;;;;;;5015557;28;95035;-82
2023/07/15 04:57:31;;;;;;;6.15;2.80;;;;;;;;;;5015551;28;92439;-81
2023/07/15 04:59:58;;;;;;;6.15;2.55;;;;;;;;;;5018465;28;97224;-81
2023/07/15 05:02:25;;;;;;;5.65;2.72;;;;;;;;;;5015422;28;92686;-82
2023/07/15 05:04:52;;;;;;;8.23;2.88;;;;;;;;;;5015594;28;96989;-82
2023/07/15 05:07:18;;;;;;;7.43;2.65;;;;;;;;;;5014311;28;94298;-82
2023/07/15 05:09:46;;;;;;;10.93;2.35;;;;;;;;;;5015766;28;91700;-82
2023/07/15 05:12:12;;;;;;;7.22;2.92;;;;;;;;;;5015408;28;93643;-82
2023/07/15 05:14:39;;;;;;;6.43;2.58;;;;;;;;;;5015121;28;94366;-78
2023/07/15 05:17:06;;;;;;;10.45;3.00;;;;;;;;;;5013858;28;94810;-79
2023/07/15 05:19:33;;;;;;;6.35;2.80;;;;;;;;;;5017936;28;95525;-78
2023/07/15 05:22:00;;;;;;;6.55;2.70;;;;;;;;;;5014856;28;92903;-78
2023/07/15 05:24:28;;;;;;;5.00;2.60;;;;;;;;;;5013854;28;93414;-78
2023/07/15 05:26:58;;;;;;;4.43;2.20;;;;;;;;;;5014808;28;94382;-79
2023/07/15 05:29:24;;;;;;;4.50;2.38;;;;;;;;;;5007580;28;92628;-79
2023/07/15 05:31:51;;;;;;;6.28;2.80;;;;;;;;;;5021678;28;93803;-79
2023/07/15 05:34:18;;;;;;;18.45;2.92;;;;;;;;;;5035564;27;93827;-78
2023/07/15 05:36:45;;;;;;;9.90;2.65;;;;;;;;;;5035135;28;92765;-78
2023/07/15 05:39:11;;;;;;;4.22;2.60;;;;;;;;;;5035219;28;94013;-79
2023/07/15 05:41:38;;;;;;;5.80;2.70;;;;;;;;;;5028377;27;96337;-78
2023/07/15 05:44:04;;;;;;;15.07;2.55;;;;;;;;;;5011438;28;95885;-79
2023/07/15 05:46:31;;;;;;;4.72;2.70;;;;;;;;;;5007802;28;94523;-79
2023/07/15 05:48:58;;;;;;;7.22;2.70;;;;;;;;;;5005685;28;92407;-78
2023/07/15 05:51:25;;;;;;;6.00;2.83;;;;;;;;;;5013363;28;93052;-79
2023/07/15 05:53:51;;;;;;;6.50;2.47;;;;;;;;;;5013349;28;93094;-79
2023/07/15 05:56:18;;;;;;;8.00;2.60;;;;;;;;;;5014203;28;92674;-78
2023/07/15 05:58:44;;;;;;;6.82;2.78;;;;;;;;;;5009399;28;94740;-78
2023/07/15 06:01:10;;;;;;;3.92;2.30;;;;;;;;;;4994625;28;96136;-79
2023/07/15 06:03:37;;;;;;;12.40;2.42;;;;;;;;;;4996623;28;92917;-79
2023/07/15 06:06:04;;;;;;;7.70;2.67;;;;;;;;;;5011674;28;96958;-79
2023/07/15 06:08:33;;;;;;;8.25;3.08;;;;;;;;;;5013456;28;92440;-82
2023/07/15 06:11:00;;;;;;;8.87;2.77;;;;;;;;;;5004685;28;93317;-80
2023/07/15 06:13:26;;;;;;;10.48;2.60;;;;;;;;;;5009900;28;94643;-80
2023/07/15 06:15:56;;;;;;;16.53;2.87;;;;;;;;;;5010498;28;92546;-80
2023/07/15 06:18:23;;;;;;;3.72;2.70;;;;;;;;;;4994476;28;94120;-81
2023/07/15 06:20:49;;;;;;;4.35;2.80;;;;;;;;;;4995329;28;94999;-80
2023/07/15 06:23:16;;;;;;;11.45;3.25;;;;;;;;;;4993654;28;91707;-80
2023/07/15 06:25:42;;;;;;;8.43;3.13;;;;;;;;;;4997216;28;93550;-85
2023/07/15 06:28:08;;;;;;;10.82;2.80;;;;;;;;;;4996528;28;92577;-74
2023/07/15 06:30:35;;;;;;;5.22;2.50;;;;;;;;;;5022152;28;94772;-79
2023/07/15 06:33:02;;;;;;;5.47;2.72;;;;;;;;;;5013467;28;93391;-82
2023/07/15 06:35:28;;;;;;;5.18;2.72;;;;;;;;;;5014232;28;92435;-82
2023/07/15 06:37:55;;;;;;;4.95;2.40;;;;;;;;;;5014594;28;93201;-82
2023/07/15 06:40:21;;;;;;;6.13;2.88;;;;;;;;;;5006759;28;94284;-82
2023/07/15 06:42:48;;;;;;;6.53;2.78;;;;;;;;;;5007248;28;92452;-82
2023/07/15 06:45:18;;;;;;;8.02;2.20;;;;;;;;;;5012626;28;92974;-83
2023/07/15 06:47:45;;;;;;;6.22;2.50;;;;;;;;;;4996040;28;92773;-82
2023/07/15 06:50:11;;;;;;;5.63;2.50;;;;;;;;;;4995174;28;92911;-83
2023/07/15 06:52:37;;;;;;;6.50;2.10;;;;;;;;;;5002306;28;93444;-83
2023/07/15 06:55:04;;;;;;;7.43;2.38;;;;;;;;;;5012339;28;94760;-83
2023/07/15 06:57:31;;;;;;;3.75;2.00;;;;;;;;;;5013740;28;96691;-83
2023/07/15 06:59:58;;;;;;;7.47;1.90;;;;;;;;;;5014121;28;93407;-83
2023/07/15 07:02:24;;;;;;;3.63;1.70;;;;;;;;;;5013672;28;92710;-83
2023/07/15 07:04:51;;;;;;;2.33;1.92;;;;;;;;;;5013911;28;92920;-83
2023/07/15 07:07:22;;;;;;;5.32;1.70;;;;;;;;;;5004525;28;93432;-83
2023/07/15 07:09:48;;;;;;;5.68;1.50;;;;;;;;;;5007814;28;92466;-83
2023/07/15 07:12:15;;;;;;;6.28;1.60;;;;;;;;;;5011474;28;91736;-82
2023/07/15 07:14:42;;;;;;;4.28;1.42;;;;;;;;;;5005989;28;92462;-81
2023/07/15 07:17:08;;;;;;;4.70;1.52;;;;;;;;;;4998518;28;93198;-81
2023/07/15 07:19:34;;;;;;;6.15;1.27;;;;;;;;;;5006909;28;95917;-82
2023/07/15 07:22:01;;;;;;;1.92;1.20;;;;;;;;;;5016809;28;92430;-81
2023/07/15 07:24:27;;;;;;;2.25;0.98;;;;;;;;;;5016777;28;93107;-81
2023/07/15 07:26:54;;;;;;;6.55;1.30;;;;;;;;;;5016646;28;93391;-82
2023/07/15 07:29:21;;;;;;;2.60;1.23;;;;;;;;;;5018257;28;92566;-82
2023/07/15 07:31:52;;;;;;;2.20;1.50;;;;;;;;;;5003964;28;92889;-81
2023/07/15 07:34:18;;;;;;;1.83;1.27;;;;;;;;;;5015763;28;92476;-82
2023/07/15 07:36:45;;;;;;;2.85;1.40;;;;;;;;;;5011536;28;95698;-82
2023/07/15 07:39:12;;;;;;;2.78;1.48;;;;;;;;;;4996874;28;95869;-82
2023/07/15 07:41:40;;;;;;;4.88;1.50;;;;;;;;;;4996704;28;92427;-82
2023/07/15 07:44:06;;;;;;;4.88;1.73;;;;;;;;;;5007298;28;95246;-82
2023/07/15 07:46:32;;;;;;;4.00;1.75;;;;;;;;;;5005510;28;93623;-82
2023/07/15 07:48:59;;;;;;;26.90;4.82;;;;;;;;;;4999001;28;92539;-82
2023/07/15 07:51:25;;;;;;;1.65;1.30;;;;;;;;;;4999576;28;93130;-83
2023/07/15 07:53:52;;;;;;;3.17;1.88;;;;;;;;;;5005614;28;92651;-83
2023/07/15 07:56:18;;;;;;;4.13;2.20;;;;;;;;;;5015898;28;93147;-83
2023/07/15 07:58:45;;;;;;;4.57;1.75;;;;;;;;;;5017109;28;93387;-83
2023/07/15 08:01:12;;;;;;;2.83;1.50;;;;;;;;;;5004608;28;91832;-83
2023/07/15 08:03:39;;;;;;;6.50;1.70;;;;;;;;;;4995957;28;92491;-83
2023/07/15 08:06:06;;;;;;;5.75;2.05;;;;;;;;;;4994336;28;93398;-81
2023/07/15 08:08:32;;;;;;;4.43;1.85;;;;;;;;;;4994151;28;94830;-83
2023/07/15 08:10:59;;;;;;;7.70;2.85;;;;;;;;;;5017278;28;95581;-83
2023/07/15 08:13:25;;;;;;;5.43;2.13;;;;;;;;;;4998851;28;93436;-83
2023/07/15 08:15:52;;;;;;;5.05;2.15;;;;;;;;;;4995668;28;95988;-82
2023/07/15 08:18:18;;;;;;;12.50;4.22;;;;;;;;;;5014749;28;93589;-83
2023/07/15 08:20:45;;;;;;;24.58;7.82;;;;;;;;;;5002582;28;92644;-82
2023/07/15 08:23:11;;;;;;;3.05;1.52;;;;;;;;;;5006116;28;92648;-82
2023/07/15 08:25:38;;;;;;;6.00;1.50;;;;;;;;;;5015881;28;92927;-83
2023/07/15 08:28:05;;;;;;;7.35;2.15;;;;;;;;;;5006565;28;92427;-82
2023/07/15 08:30:35;;;;;;;7.10;3.00;;;;;;;;;;4995538;28;93283;-82
2023/07/15 08:33:05;;;;;;;3.45;1.67;;;;;;;;;;4992951;28;95921;-82
2023/07/15 08:35:32;;;;;;;5.00;2.25;;;;;;;;;;4999873;28;93881;-81
2023/07/15 08:37:59;;;;;;;5.10;2.03;;;;;;;;;;4994916;28;93656;-82
2023/07/15 08:40:26;;;;;;;5.93;2.05;;;;;;;;;;4995132;28;92761;-82
2023/07/15 08:42:53;;;;;;;4.72;1.83;;;;;;;;;;5006314;28;94228;-83
2023/07/15 08:45:20;;;;;;;6.15;2.30;;;;;;;;;;4993493;28;93463;-83
2023/07/15 08:47:47;;;;;;;3.38;2.30;;;;;;;;;;4995259;28;93398;-83
2023/07/15 08:50:15;;;;;;;3.92;2.28;;;;;;;;;;5008803;28;93124;-83
2023/07/15 08:52:42;;;;;;;8.70;2.33;;;;;;;;;;5007606;28;95182;-82
2023/07/15 08:55:09;;;;;;;3.95;2.13;;;;;;;;;;4996414;28;92327;-82
2023/07/15 08:57:35;;;;;;;3.08;1.48;;;;;;;;;;4998193;28;96819;-81
2023/07/15 09:00:10;;;;;;;2.60;1.98;;;;;;;;;;5013344;28;93115;-84
2023/07/15 09:02:40;;;;;;;9.95;2.20;;;;;;;;;;4994096;28;93093;-82
2023/07/15 09:05:07;;;;;;;5.13;2.05;;;;;;;;;;4995408;28;95581;-82
2023/07/15 09:07:51;;;;;;;5.40;2.08;;;;;;;;;;5003937;28;92716;-82
2023/07/15 09:10:17;;;;;;;3.10;2.35;;;;;;;;;;5010664;28;93150;-82
2023/07/15 09:12:45;;;;;;;3.38;2.25;;;;;;;;;;4993646;28;93426;-83
2023/07/15 09:15:12;;;;;;;3.03;2.10;;;;;;;;;;4995138;28;91786;-82
2023/07/15 09:17:39;;;;;;;4.72;2.00;;;;;;;;;;5009499;28;93448;-76
2023/07/15 09:20:19;;;;;;;6.75;2.58;;;;;;;;;;5015813;28;93420;-76
2023/07/15 09:22:50;;;;;;;5.55;2.72;;;;;;;;;;5005631;28;95607;-76
2023/07/15 09:25:18;;;;;;;4.75;2.67;;;;;;;;;;5013536;28;93636;-77
2023/07/15 09:27:45;;;;;;;4.57;2.90;;;;;;;;;;5009783;28;92805;-78
2023/07/15 09:30:11;;;;;;;5.63;2.55;;;;;;;;;;4994865;28;94599;-77
2023/07/15 09:32:38;;;;;;;3.63;2.38;;;;;;;;;;5013158;28;93463;-78
2023/07/15 09:35:05;;;;;;;4.20;2.25;;;;;;;;;;5014052;28;92893;-77
2023/07/15 09:37:32;;;;;;;4.15;2.35;;;;;;;;;;4995350;28;93306;-76
2023/07/15 09:39:59;;;;;;;6.93;2.30;;;;;;;;;;5003277;28;92725;-76
2023/07/15 09:42:29;;;;;;;2.75;2.50;;;;;;;;;;4995594;28;92421;-76
2023/07/15 09:44:55;;;;;;;6.65;2.53;;;;;;;;;;4993886;28;93503;-76
2023/07/15 09:47:23;;;;;;;9.48;2.75;;;;;;;;;;5002765;28;94839;-75
2023/07/15 09:49:49;;;;;;;2.78;2.40;;;;;;;;;;5012612;28;95505;-75
2023/07/15 09:52:16;;;;;;;5.00;2.72;;;;;;;;;;5006641;28;92425;-75
2023/07/15 09:54:43;;;;;;;2.55;2.15;;;;;;;;;;5014269;28;92447;-76
2023/07/15 09:57:10;;;;;;;8.65;2.63;;;;;;;;;;5013046;28;93496;-75
2023/07/15 09:59:47;;;;;;;2.20;2.00;;;;;;;;;;5011899;28;93422;-75
2023/07/15 10:02:21;;;;;;;4.72;2.50;;;;;;;;;;4997155;28;92805;-76
2023/07/15 10:04:48;;;;;;;6.50;1.92;;;;;;;;;;5014447;28;92995;-76
2023/07/15 10:07:15;;;;;;;6.40;1.90;;;;;;;;;;5001731;28;92470;-72
2023/07/15 10:09:41;;;;;;;7.80;1.85;;;;;;;;;;5007852;28;93311;-72
2023/07/15 10:12:08;;;;;;;2.53;1.50;;;;;;;;;;5010646;28;95825;-73
2023/07/15 10:14:36;;;;;;;4.25;1.70;;;;;;;;;;5012418;28;92440;-72
2023/07/15 10:17:15;;;;;;;3.88;2.05;;;;;;;;;;5013127;28;93403;-72
2023/07/15 10:19:41;;;;;;;5.10;1.90;;;;;;;;;;4998523;28;93657;-73
2023/07/15 10:22:08;;;;;;;7.45;2.05;;;;;;;;;;5007934;28;92419;-73
2023/07/15 10:24:35;;;;;;;4.47;1.60;;;;;;;;;;4996988;28;94221;-73
2023/07/15 10:27:07;;;;;;;2.38;1.48;;;;;;;;;;4993726;28;92476;-73
2023/07/15 10:29:33;;;;;;;1.83;1.50;;;;;;;;;;4993241;28;93324;-72
2023/07/15 10:32:10;;;;;;;6.10;1.70;;;;;;;;;;4993429;28;93529;-73
2023/07/15 10:34:41;;;;;;;7.38;1.70;;;;;;;;;;4995514;28;92851;-73
2023/07/15 10:37:11;;;;;;;6.60;2.28;;;;;;;;;;5009958;28;95267;-73
2023/07/15 10:39:38;;;;;;;4.53;1.95;;;;;;;;;;5008420;28;93715;-73
2023/07/15 10:42:08;;;;;;;6.13;1.70;;;;;;;;;;5013634;28;92468;-73
2023/07/15 10:44:39;;;;;;;6.15;2.00;;;;;;;;;;5003915;28;95476;-73
2023/07/15 10:47:05;;;;;;;4.75;1.75;;;;;;;;;;5007333;28;93729;-74
2023/07/15 10:49:32;;;;;;;4.88;1.55;;;;;;;;;;4995827;28;93084;-74
2023/07/15 10:51:59;;;;;;;5.30;1.42;;;;;;;;;;4997028;28;93463;-74
2023/07/15 10:54:26;;;;;;;12.85;1.75;;;;;;;;;;5006203;28;91731;-74
2023/07/15 10:56:52;;;;;;;13.68;2.33;;;;;;;;;;5012079;28;92537;-74
2023/07/15 10:59:20;;;;;;;5.05;1.77;;;;;;;;;;5000111;28;93363;-74
2023/07/15 11:01:47;;;;;;;2.85;1.67;;;;;;;;;;5009955;28;95205;-74
2023/07/15 11:04:18;;;;;;;6.85;1.77;;;;;;;;;;5013947;28;95465;-74
2023/07/15 11:06:44;;;;;;;4.78;1.65;;;;;;;;;;5016589;28;93324;-74
2023/07/15 11:09:18;;;;;;;6.22;1.52;;;;;;;;;;5016961;28;92430;-74
2023/07/15 11:11:45;;;;;;;8.60;2.10;;;;;;;;;;5006795;28;94410;-74
2023/07/15 11:14:21;;;;;;;5.10;2.33;;;;;;;;;;5004085;28;92475;-74
2023/07/15 11:16:52;;;;;;;2.65;1.50;;;;;;;;;;5003136;28;93360;-74
2023/07/15 11:19:19;;;;;;;4.30;1.90;;;;;;;;;;5012685;28;92677;-74
2023/07/15 11:21:45;;;;;;;6.38;1.67;;;;;;;;;;4997497;28;92462;-75
2023/07/15 11:24:12;;;;;;;4.32;1.77;;;;;;;;;;4996738;28;94419;-74
2023/07/15 11:26:39;;;;;;;5.78;1.80;;;;;;;;;;4994102;28;95891;-74
2023/07/15 11:29:13;;;;;;;4.13;1.48;;;;;;;;;;5002774;28;92912;-74
2023/07/15 11:31:40;;;;;;;5.55;1.90;;;;;;;;;;5000671;28;94299;-74
2023/07/15 11:34:09;;;;;;;5.65;1.70;;;;;;;;;;4996496;28;92533;-74
2023/07/15 11:36:38;;;;;;;5.85;2.13;;;;;;;;;;4996201;28;93097;-74
2023/07/15 11:39:05;;;;;;;7.03;2.13;;;;;;;;;;5003317;28;93454;-74
2023/07/15 11:41:33;;;;;;;5.00;1.90;;;;;;;;;;5004410;28;92470;-71
2023/07/15 11:43:59;;;;;;;9.65;2.42;;;;;;;;;;5014467;28;92998;-71
2023/07/15 11:46:26;;;;;;;4.88;1.95;;;;;;;;;;5015606;28;93464;-75
2023/07/15 11:48:59;;;;;;;7.93;1.90;;;;;;;;;;4997292;28;92910;-77
2023/07/15 11:51:26;;;;;;;11.00;2.38;;;;;;;;;;4998001;28;94962;-74
2023/07/15 11:53:56;;;;;;;;;;;;;;;;;;4996481;28;92480;-77
2023/07/15 11:56:38;;;;;;;4.43;1.65;;;;;;;;;;4996964;28;123484;-78
2023/07/15 11:59:08;;;;;;;7.03;1.80;;;;;;;;;;4995912;28;96707;-78
2023/07/15 12:01:35;;;;;;;;;;;;;;;;;;4996285;28;92791;-78
2023/07/15 12:04:01;;;;;;;5.07;1.83;;;;;;;;;;4995327;28;122054;-78
2023/07/15 12:06:28;;;;;;;8.48;1.65;;;;;;;;;;4995805;28;93560;-79
2023/07/15 12:08:58;;;;;;;3.38;1.40;;;;;;;;;;4996776;28;91739;-79
2023/07/15 12:11:24;;;;;;;5.68;1.42;;;;;;;;;;5002389;28;92739;-80
2023/07/15 12:13:51;;;;;;;3.90;2.00;;;;;;;;;;5017394;28;93521;-80
2023/07/15 12:16:17;;;;;;;4.93;1.70;;;;;;;;;;5013453;28;94921;-80
2023/07/15 12:18:44;;;;;;;5.85;1.70;;;;;;;;;;5015950;28;94485;-80
2023/07/15 12:21:10;;;;;;;2.15;1.50;;;;;;;;;;5015338;28;92412;-80
2023/07/15 12:23:37;;;;;;;5.68;1.52;;;;;;;;;;5016031;28;93459;-80
2023/07/15 12:26:03;;;;;;;3.00;1.70;;;;;;;;;;5013851;28;93543;-80
2023/07/15 12:28:29;;;;;;;7.95;1.70;;;;;;;;;;4996818;28;93385;-76
2023/07/15 12:30:56;;;;;;;2.65;1.65;;;;;;;;;;5006359;28;93107;-76
2023/07/15 12:33:22;;;;;;;3.40;1.77;;;;;;;;;;5015731;28;92951;-76
2023/07/15 12:35:49;;;;;;;3.75;1.27;;;;;;;;;;5018577;28;92508;-76
2023/07/15 12:38:15;;;;;;;2.35;1.40;;;;;;;;;;5010718;28;93493;-76
2023/07/15 12:40:41;;;;;;;4.68;1.65;;;;;;;;;;4992305;28;95391;-76
2023/07/15 12:43:08;;;;;;;5.80;1.83;;;;;;;;;;5004203;28;95254;-76
2023/07/15 12:45:34;;;;;;;4.28;1.73;;;;;;;;;;5013837;28;93405;-76
2023/07/15 12:48:01;;;;;;;3.13;1.63;;;;;;;;;;5001627;28;93360;-78
2023/07/15 12:50:27;;;;;;;2.45;1.63;;;;;;;;;;5001815;28;94370;-76
2023/07/15 12:52:54;;;;;;;4.50;1.60;;;;;;;;;;5009779;28;93541;-75
2023/07/15 12:55:20;;;;;;;5.95;1.55;;;;;;;;;;5011616;28;92502;-75
2023/07/15 12:57:47;;;;;;;3.75;1.10;;;;;;;;;;5010983;28;93355;-77
2023/07/15 13:00:14;;;;;;;7.15;1.75;;;;;;;;;;5005826;28;94078;-77
2023/07/15 13:02:41;;;;;;;4.45;1.70;;;;;;;;;;5014126;28;93801;-77
2023/07/15 13:05:07;;;;;;;3.58;1.52;;;;;;;;;;5001344;28;95817;-77
2023/07/15 13:07:34;;;;;;;3.38;1.50;;;;;;;;;;4995348;28;92460;-77
2023/07/15 13:10:00;;;;;;;9.02;1.73;;;;;;;;;;4995153;28;93081;-77
2023/07/15 13:12:27;;;;;;;5.72;1.10;;;;;;;;;;4998075;28;93595;-77
2023/07/15 13:14:54;;;;;;;3.38;1.27;;;;;;;;;;5004464;28;92497;-77
2023/07/15 13:17:20;;;;;;;4.35;1.30;;;;;;;;;;5005610;28;93101;-77
2023/07/15 13:19:46;;;;;;;4.43;0.95;;;;;;;;;;5001262;28;93505;-76
2023/07/15 13:22:13;;;;;;;5.28;1.20;;;;;;;;;;4995272;28;93193;-77
2023/07/15 13:24:41;;;;;;;2.95;1.13;;;;;;;;;;4999074;28;93538;-77
2023/07/15 13:27:08;;;;;;;4.18;1.30;;;;;;;;;;4997387;28;92586;-76
2023/07/15 13:29:34;;;;;;;1.77;1.30;;;;;;;;;;5003153;28;94831;-77
2023/07/15 13:32:00;;;;;;;1.00;1.00;;;;;;;;;;4998516;28;93508;-76
2023/07/15 13:34:27;;;;;;;4.40;1.40;;;;;;;;;;4997127;28;92504;-77
2023/07/15 13:36:53;;;;;;;4.63;1.40;;;;;;;;;;5008458;28;93415;-77
2023/07/15 13:39:33;;;;;;;6.30;1.95;;;;;;;;;;4994405;28;93564;-77
2023/07/15 13:41:59;;;;;;;3.75;1.63;;;;;;;;;;5016605;28;92459;-77
2023/07/15 13:44:26;;;;;;;3.47;1.48;;;;;;;;;;4997899;28;93194;-77
2023/07/15 13:46:53;;;;;;;5.43;1.20;;;;;;;;;;5003373;28;91731;-77
2023/07/15 13:49:20;;;;;;;2.55;1.13;;;;;;;;;;4993214;28;94706;-77
2023/07/15 13:51:46;;;;;;;3.85;1.73;;;;;;;;;;5012941;28;93515;-77
2023/07/15 13:54:13;;;;;;;1.83;1.33;;;;;;;;;;5012136;28;95004;-77
2023/07/15 13:56:39;;;;;;;2.03;1.40;;;;;;;;;;5012089;28;96161;-77
2023/07/15 13:59:05;;;;;;;1.73;1.42;;;;;;;;;;5003194;28;93550;-77
2023/07/15 14:01:32;;;;;;;4.80;1.80;;;;;;;;;;4997167;28;92467;-77
2023/07/15 14:03:58;;;;;;;3.70;1.73;;;;;;;;;;5000601;28;93681;-77
2023/07/15 14:06:25;;;;;;;7.13;1.65;;;;;;;;;;4993413;28;92618;-76
2023/07/15 14:08:51;;;;;;;2.70;1.50;;;;;;;;;;5001121;28;93398;-77
2023/07/15 14:11:17;;;;;;;1.40;1.15;;;;;;;;;;4999897;28;92672;-77
2023/07/15 14:13:44;;;;;;;1.98;1.48;;;;;;;;;;4994635;28;92505;-76
2023/07/15 14:16:10;;;;;;;5.47;1.63;;;;;;;;;;4995961;28;93430;-77
2023/07/15 14:18:37;;;;;;;2.20;1.50;;;;;;;;;;5010436;28;98338;-74
2023/07/15 14:21:03;;;;;;;4.60;1.30;;;;;;;;;;4995394;28;92441;-74
2023/07/15 14:23:30;;;;;;;4.35;1.50;;;;;;;;;;5011661;28;93703;-74
2023/07/15 14:25:56;;;;;;;6.47;1.73;;;;;;;;;;4999065;28;92700;-74
2023/07/15 14:28:23;;;;;;;4.15;1.92;;;;;;;;;;4997144;28;93371;-75
2023/07/15 14:30:49;;;;;;;9.98;1.50;;;;;;;;;;4998468;28;93675;-74
2023/07/15 14:33:16;;;;;;;5.30;1.55;;;;;;;;;;4996729;28;93016;-75
2023/07/15 14:35:42;;;;;;;3.90;1.80;;;;;;;;;;5012234;28;93110;-75
2023/07/15 14:38:08;;;;;;;2.88;1.90;;;;;;;;;;5002141;28;93370;-77
2023/07/15 14:40:35;;;;;;;2.22;1.52;;;;;;;;;;4997269;28;92522;-76
2023/07/15 14:43:01;;;;;;;4.40;1.42;;;;;;;;;;5005170;28;94883;-77